sensor_id;sensor_type;location;lat;lon;timestamp;P1;durP1;ratioP1;P2;durP2;ratioP2
57303;SDS011;43150;50.986;18.208;2023-04-24T00:00:21;9.50;;;6.90;;
57303;SDS011;43150;50.986;18.208;2023-04-24T00:02:47;8.40;;;7.10;;
57303;SDS011;43150;50.986;18.208;2023-04-24T00:05:13;8.70;;;7.50;;
57303;SDS011;43150;50.986;18.208;2023-04-24T00:07:39;8.20;;;7.10;;
57303;SDS011;43150;50.986;18.208;2023-04-24T00:10:05;9.20;;;6.40;;
57303;SDS011;43150;50.986;18.208;2023-04-24T00:12:32;8.40;;;7.30;;
57303;SDS011;43150;50.986;18.208;2023-04-24T00:14:58;10.70;;;7.50;;
57303;SDS011;43150;50.986;18.208;2023-04-24T00:17:24;10.70;;;7.60;;
57303;SDS011;43150;50.986;18.208;2023-04-24T00:19:49;8.50;;;7.60;;
57303;SDS011;43150;50.986;18.208;2023-04-24T00:22:24;8.20;;;7.30;;
57303;SDS011;43150;50.986;18.208;2023-04-24T00:24:49;8.80;;;7.10;;
57303;SDS011;43150;50.986;18.208;2023-04-24T00:27:15;9.80;;;7.20;;
57303;SDS011;43150;50.986;18.208;2023-04-24T00:29:41;7.50;;;6.80;;
57303;SDS011;43150;50.986;18.208;2023-04-24T00:32:07;7.90;;;6.90;;
57303;SDS011;43150;50.986;18.208;2023-04-24T00:34:33;8.60;;;6.90;;
57303;SDS011;43150;50.986;18.208;2023-04-24T00:37:00;7.00;;;6.30;;
57303;SDS011;43150;50.986;18.208;2023-04-24T00:39:25;9.00;;;7.50;;
57303;SDS011;43150;50.986;18.208;2023-04-24T00:41:51;8.60;;;6.40;;
57303;SDS011;43150;50.986;18.208;2023-04-24T00:44:17;7.80;;;6.10;;
57303;SDS011;43150;50.986;18.208;2023-04-24T00:46:43;7.10;;;6.00;;
57303;SDS011;43150;50.986;18.208;2023-04-24T00:49:09;7.70;;;5.50;;
57303;SDS011;43150;50.986;18.208;2023-04-24T00:51:35;7.20;;;6.00;;
57303;SDS011;43150;50.986;18.208;2023-04-24T00:54:01;6.70;;;5.40;;
57303;SDS011;43150;50.986;18.208;2023-04-24T00:56:27;8.50;;;6.00;;
57303;SDS011;43150;50.986;18.208;2023-04-24T00:58:53;7.70;;;5.80;;
57303;SDS011;43150;50.986;18.208;2023-04-24T01:01:19;7.10;;;5.60;;
57303;SDS011;43150;50.986;18.208;2023-04-24T01:03:46;8.10;;;6.00;;
57303;SDS011;43150;50.986;18.208;2023-04-24T01:06:12;7.60;;;6.00;;
57303;SDS011;43150;50.986;18.208;2023-04-24T01:08:40;6.90;;;6.20;;
57303;SDS011;43150;50.986;18.208;2023-04-24T01:11:06;6.60;;;5.60;;
57303;SDS011;43150;50.986;18.208;2023-04-24T01:13:32;6.70;;;5.50;;
57303;SDS011;43150;50.986;18.208;2023-04-24T01:15:59;7.60;;;5.50;;
57303;SDS011;43150;50.986;18.208;2023-04-24T01:18:25;9.10;;;5.50;;
57303;SDS011;43150;50.986;18.208;2023-04-24T01:20:53;9.00;;;6.00;;
57303;SDS011;43150;50.986;18.208;2023-04-24T01:23:22;7.80;;;6.00;;
57303;SDS011;43150;50.986;18.208;2023-04-24T01:25:48;8.10;;;6.30;;
57303;SDS011;43150;50.986;18.208;2023-04-24T01:28:14;7.20;;;6.30;;
57303;SDS011;43150;50.986;18.208;2023-04-24T01:30:40;7.30;;;5.90;;
57303;SDS011;43150;50.986;18.208;2023-04-24T01:33:05;7.00;;;6.00;;
57303;SDS011;43150;50.986;18.208;2023-04-24T01:35:31;8.30;;;6.30;;
57303;SDS011;43150;50.986;18.208;2023-04-24T01:37:57;8.30;;;5.60;;
57303;SDS011;43150;50.986;18.208;2023-04-24T01:40:22;8.10;;;6.00;;
57303;SDS011;43150;50.986;18.208;2023-04-24T01:42:48;7.10;;;5.30;;
57303;SDS011;43150;50.986;18.208;2023-04-24T01:45:13;7.60;;;6.00;;
57303;SDS011;43150;50.986;18.208;2023-04-24T01:47:39;7.20;;;5.80;;
57303;SDS011;43150;50.986;18.208;2023-04-24T01:50:05;7.30;;;5.80;;
57303;SDS011;43150;50.986;18.208;2023-04-24T01:52:31;6.70;;;5.50;;
57303;SDS011;43150;50.986;18.208;2023-04-24T01:55:04;6.10;;;5.50;;
57303;SDS011;43150;50.986;18.208;2023-04-24T01:57:30;6.60;;;5.80;;
57303;SDS011;43150;50.986;18.208;2023-04-24T01:59:57;9.10;;;6.30;;
57303;SDS011;43150;50.986;18.208;2023-04-24T02:02:23;7.80;;;6.50;;
57303;SDS011;43150;50.986;18.208;2023-04-24T02:04:56;7.70;;;5.90;;
57303;SDS011;43150;50.986;18.208;2023-04-24T02:07:21;6.90;;;6.10;;
57303;SDS011;43150;50.986;18.208;2023-04-24T02:09:47;8.20;;;6.00;;
57303;SDS011;43150;50.986;18.208;2023-04-24T02:12:13;7.40;;;6.20;;
57303;SDS011;43150;50.986;18.208;2023-04-24T02:14:39;7.00;;;6.30;;
57303;SDS011;43150;50.986;18.208;2023-04-24T02:17:05;8.10;;;6.50;;
57303;SDS011;43150;50.986;18.208;2023-04-24T02:19:31;7.40;;;6.50;;
57303;SDS011;43150;50.986;18.208;2023-04-24T02:21:58;7.40;;;6.50;;
57303;SDS011;43150;50.986;18.208;2023-04-24T02:24:23;8.90;;;7.10;;
57303;SDS011;43150;50.986;18.208;2023-04-24T02:26:49;7.50;;;6.80;;
57303;SDS011;43150;50.986;18.208;2023-04-24T02:29:15;9.10;;;7.10;;
57303;SDS011;43150;50.986;18.208;2023-04-24T02:31:41;7.50;;;6.70;;
57303;SDS011;43150;50.986;18.208;2023-04-24T02:34:07;8.30;;;7.30;;
57303;SDS011;43150;50.986;18.208;2023-04-24T02:36:33;7.90;;;7.10;;
57303;SDS011;43150;50.986;18.208;2023-04-24T02:38:59;8.60;;;7.40;;
57303;SDS011;43150;50.986;18.208;2023-04-24T02:41:26;9.10;;;7.20;;
57303;SDS011;43150;50.986;18.208;2023-04-24T02:43:57;8.20;;;7.40;;
57303;SDS011;43150;50.986;18.208;2023-04-24T02:46:24;9.10;;;7.50;;
57303;SDS011;43150;50.986;18.208;2023-04-24T02:48:50;8.30;;;7.50;;
57303;SDS011;43150;50.986;18.208;2023-04-24T02:51:15;9.20;;;7.50;;
57303;SDS011;43150;50.986;18.208;2023-04-24T02:53:41;10.20;;;7.20;;
57303;SDS011;43150;50.986;18.208;2023-04-24T02:56:09;9.80;;;7.80;;
57303;SDS011;43150;50.986;18.208;2023-04-24T02:58:37;9.60;;;7.90;;
57303;SDS011;43150;50.986;18.208;2023-04-24T03:01:04;9.40;;;7.80;;
57303;SDS011;43150;50.986;18.208;2023-04-24T03:03:30;9.60;;;7.70;;
57303;SDS011;43150;50.986;18.208;2023-04-24T03:05:56;11.00;;;8.50;;
57303;SDS011;43150;50.986;18.208;2023-04-24T03:08:22;10.60;;;8.70;;
57303;SDS011;43150;50.986;18.208;2023-04-24T03:10:47;10.60;;;8.60;;
57303;SDS011;43150;50.986;18.208;2023-04-24T03:13:13;11.30;;;9.30;;
57303;SDS011;43150;50.986;18.208;2023-04-24T03:15:39;9.80;;;8.80;;
57303;SDS011;43150;50.986;18.208;2023-04-24T03:18:04;10.20;;;8.30;;
57303;SDS011;43150;50.986;18.208;2023-04-24T03:20:30;11.50;;;8.10;;
57303;SDS011;43150;50.986;18.208;2023-04-24T03:22:55;10.80;;;8.10;;
57303;SDS011;43150;50.986;18.208;2023-04-24T03:25:22;11.00;;;8.10;;
57303;SDS011;43150;50.986;18.208;2023-04-24T03:27:48;9.30;;;8.30;;
57303;SDS011;43150;50.986;18.208;2023-04-24T03:30:13;9.60;;;8.10;;
57303;SDS011;43150;50.986;18.208;2023-04-24T03:32:40;8.30;;;7.40;;
57303;SDS011;43150;50.986;18.208;2023-04-24T03:35:08;9.20;;;7.20;;
57303;SDS011;43150;50.986;18.208;2023-04-24T03:37:36;8.90;;;7.40;;
57303;SDS011;43150;50.986;18.208;2023-04-24T03:40:02;9.40;;;6.80;;
57303;SDS011;43150;50.986;18.208;2023-04-24T03:42:27;10.20;;;7.70;;
57303;SDS011;43150;50.986;18.208;2023-04-24T03:44:53;9.80;;;8.80;;
57303;SDS011;43150;50.986;18.208;2023-04-24T03:47:19;8.50;;;7.50;;
57303;SDS011;43150;50.986;18.208;2023-04-24T03:49:44;11.80;;;8.40;;
57303;SDS011;43150;50.986;18.208;2023-04-24T03:52:10;11.20;;;10.00;;
57303;SDS011;43150;50.986;18.208;2023-04-24T03:54:35;13.80;;;9.90;;
57303;SDS011;43150;50.986;18.208;2023-04-24T03:57:01;11.70;;;10.10;;
57303;SDS011;43150;50.986;18.208;2023-04-24T03:59:26;12.80;;;10.80;;
57303;SDS011;43150;50.986;18.208;2023-04-24T04:01:52;14.40;;;9.90;;
57303;SDS011;43150;50.986;18.208;2023-04-24T04:04:17;12.70;;;10.40;;
57303;SDS011;43150;50.986;18.208;2023-04-24T04:06:43;11.50;;;9.70;;
57303;SDS011;43150;50.986;18.208;2023-04-24T04:09:09;9.50;;;8.50;;
57303;SDS011;43150;50.986;18.208;2023-04-24T04:11:35;10.30;;;8.70;;
57303;SDS011;43150;50.986;18.208;2023-04-24T04:14:01;9.60;;;8.10;;
57303;SDS011;43150;50.986;18.208;2023-04-24T04:16:27;10.80;;;8.40;;
57303;SDS011;43150;50.986;18.208;2023-04-24T04:18:52;9.90;;;8.90;;
57303;SDS011;43150;50.986;18.208;2023-04-24T04:21:18;12.30;;;8.80;;
57303;SDS011;43150;50.986;18.208;2023-04-24T04:23:43;10.50;;;8.70;;
57303;SDS011;43150;50.986;18.208;2023-04-24T04:26:09;10.40;;;8.90;;
57303;SDS011;43150;50.986;18.208;2023-04-24T04:28:34;9.80;;;8.70;;
57303;SDS011;43150;50.986;18.208;2023-04-24T04:31:00;10.80;;;9.50;;
57303;SDS011;43150;50.986;18.208;2023-04-24T04:33:26;10.60;;;8.50;;
57303;SDS011;43150;50.986;18.208;2023-04-24T04:35:51;9.50;;;8.50;;
57303;SDS011;43150;50.986;18.208;2023-04-24T04:38:17;13.50;;;10.20;;
57303;SDS011;43150;50.986;18.208;2023-04-24T04:40:43;12.90;;;9.80;;
57303;SDS011;43150;50.986;18.208;2023-04-24T04:43:11;10.80;;;9.30;;
57303;SDS011;43150;50.986;18.208;2023-04-24T04:45:38;12.00;;;10.00;;
57303;SDS011;43150;50.986;18.208;2023-04-24T04:48:04;10.90;;;9.60;;
57303;SDS011;43150;50.986;18.208;2023-04-24T04:50:32;10.30;;;9.20;;
57303;SDS011;43150;50.986;18.208;2023-04-24T04:52:58;11.10;;;9.10;;
57303;SDS011;43150;50.986;18.208;2023-04-24T04:55:24;11.00;;;8.80;;
57303;SDS011;43150;50.986;18.208;2023-04-24T04:57:51;10.80;;;8.40;;
57303;SDS011;43150;50.986;18.208;2023-04-24T05:00:22;10.70;;;8.70;;
57303;SDS011;43150;50.986;18.208;2023-04-24T05:02:50;10.10;;;8.30;;
57303;SDS011;43150;50.986;18.208;2023-04-24T05:05:16;10.10;;;8.40;;
57303;SDS011;43150;50.986;18.208;2023-04-24T05:07:43;10.60;;;8.60;;
57303;SDS011;43150;50.986;18.208;2023-04-24T05:10:08;9.10;;;8.00;;
57303;SDS011;43150;50.986;18.208;2023-04-24T05:12:34;10.90;;;7.40;;
57303;SDS011;43150;50.986;18.208;2023-04-24T05:15:01;9.90;;;8.20;;
57303;SDS011;43150;50.986;18.208;2023-04-24T05:17:26;9.20;;;8.00;;
57303;SDS011;43150;50.986;18.208;2023-04-24T05:19:56;9.40;;;7.80;;
57303;SDS011;43150;50.986;18.208;2023-04-24T05:22:22;9.10;;;7.40;;
57303;SDS011;43150;50.986;18.208;2023-04-24T05:24:50;10.40;;;7.20;;
57303;SDS011;43150;50.986;18.208;2023-04-24T05:27:15;9.90;;;7.60;;
57303;SDS011;43150;50.986;18.208;2023-04-24T05:29:41;8.90;;;7.40;;
57303;SDS011;43150;50.986;18.208;2023-04-24T05:32:06;8.70;;;7.40;;
57303;SDS011;43150;50.986;18.208;2023-04-24T05:34:32;9.90;;;7.50;;
57303;SDS011;43150;50.986;18.208;2023-04-24T05:36:58;10.70;;;7.70;;
57303;SDS011;43150;50.986;18.208;2023-04-24T05:39:23;8.20;;;7.30;;
57303;SDS011;43150;50.986;18.208;2023-04-24T05:41:50;10.50;;;7.90;;
57303;SDS011;43150;50.986;18.208;2023-04-24T05:44:16;8.40;;;7.50;;
57303;SDS011;43150;50.986;18.208;2023-04-24T05:46:41;10.10;;;7.70;;
57303;SDS011;43150;50.986;18.208;2023-04-24T05:49:07;9.80;;;8.00;;
57303;SDS011;43150;50.986;18.208;2023-04-24T05:51:34;8.70;;;7.50;;
57303;SDS011;43150;50.986;18.208;2023-04-24T05:54:00;9.40;;;8.20;;
57303;SDS011;43150;50.986;18.208;2023-04-24T05:56:27;10.60;;;8.00;;
57303;SDS011;43150;50.986;18.208;2023-04-24T05:58:52;11.30;;;8.40;;
57303;SDS011;43150;50.986;18.208;2023-04-24T06:01:17;9.90;;;7.80;;
57303;SDS011;43150;50.986;18.208;2023-04-24T06:03:43;9.40;;;7.50;;
57303;SDS011;43150;50.986;18.208;2023-04-24T06:06:08;11.10;;;7.10;;
57303;SDS011;43150;50.986;18.208;2023-04-24T06:08:34;9.80;;;7.70;;
57303;SDS011;43150;50.986;18.208;2023-04-24T06:11:00;14.40;;;8.10;;
57303;SDS011;43150;50.986;18.208;2023-04-24T06:13:26;9.80;;;7.10;;
57303;SDS011;43150;50.986;18.208;2023-04-24T06:15:52;8.30;;;6.50;;
57303;SDS011;43150;50.986;18.208;2023-04-24T06:18:23;9.50;;;7.20;;
57303;SDS011;43150;50.986;18.208;2023-04-24T06:20:49;9.40;;;6.70;;
57303;SDS011;43150;50.986;18.208;2023-04-24T06:23:15;8.50;;;6.80;;
57303;SDS011;43150;50.986;18.208;2023-04-24T06:25:41;9.90;;;7.50;;
57303;SDS011;43150;50.986;18.208;2023-04-24T06:28:06;7.60;;;6.70;;
57303;SDS011;43150;50.986;18.208;2023-04-24T06:30:32;8.20;;;6.90;;
57303;SDS011;43150;50.986;18.208;2023-04-24T06:33:01;10.10;;;7.30;;
57303;SDS011;43150;50.986;18.208;2023-04-24T06:35:26;8.00;;;6.50;;
57303;SDS011;43150;50.986;18.208;2023-04-24T06:37:52;7.90;;;6.70;;
57303;SDS011;43150;50.986;18.208;2023-04-24T06:40:18;11.10;;;7.30;;
57303;SDS011;43150;50.986;18.208;2023-04-24T06:42:50;9.40;;;7.60;;
57303;SDS011;43150;50.986;18.208;2023-04-24T06:45:16;8.30;;;6.60;;
57303;SDS011;43150;50.986;18.208;2023-04-24T06:47:42;11.20;;;7.10;;
57303;SDS011;43150;50.986;18.208;2023-04-24T06:50:08;10.70;;;6.80;;
57303;SDS011;43150;50.986;18.208;2023-04-24T06:52:34;14.20;;;7.10;;
57303;SDS011;43150;50.986;18.208;2023-04-24T06:55:03;9.80;;;6.90;;
57303;SDS011;43150;50.986;18.208;2023-04-24T06:57:29;8.50;;;6.80;;
57303;SDS011;43150;50.986;18.208;2023-04-24T06:59:54;9.40;;;6.80;;
57303;SDS011;43150;50.986;18.208;2023-04-24T07:02:20;9.90;;;7.30;;
57303;SDS011;43150;50.986;18.208;2023-04-24T07:04:46;9.60;;;6.60;;
57303;SDS011;43150;50.986;18.208;2023-04-24T07:07:13;9.30;;;6.50;;
57303;SDS011;43150;50.986;18.208;2023-04-24T07:09:39;10.10;;;6.60;;
57303;SDS011;43150;50.986;18.208;2023-04-24T07:12:08;11.30;;;6.90;;
57303;SDS011;43150;50.986;18.208;2023-04-24T07:14:33;9.80;;;6.50;;
57303;SDS011;43150;50.986;18.208;2023-04-24T07:16:59;9.80;;;6.80;;
57303;SDS011;43150;50.986;18.208;2023-04-24T07:19:24;10.50;;;6.10;;
57303;SDS011;43150;50.986;18.208;2023-04-24T07:21:50;10.00;;;7.00;;
57303;SDS011;43150;50.986;18.208;2023-04-24T07:24:20;10.90;;;7.50;;
57303;SDS011;43150;50.986;18.208;2023-04-24T07:26:46;12.50;;;9.40;;
57303;SDS011;43150;50.986;18.208;2023-04-24T07:29:12;9.40;;;7.10;;
57303;SDS011;43150;50.986;18.208;2023-04-24T07:31:38;10.20;;;7.40;;
57303;SDS011;43150;50.986;18.208;2023-04-24T07:34:03;9.60;;;7.40;;
57303;SDS011;43150;50.986;18.208;2023-04-24T07:36:29;7.90;;;7.10;;
57303;SDS011;43150;50.986;18.208;2023-04-24T07:38:55;8.90;;;7.10;;
57303;SDS011;43150;50.986;18.208;2023-04-24T07:41:22;8.20;;;6.80;;
57303;SDS011;43150;50.986;18.208;2023-04-24T07:43:53;9.10;;;6.90;;
57303;SDS011;43150;50.986;18.208;2023-04-24T07:46:19;9.40;;;7.20;;
57303;SDS011;43150;50.986;18.208;2023-04-24T07:48:45;8.80;;;6.70;;
57303;SDS011;43150;50.986;18.208;2023-04-24T07:51:13;7.10;;;5.30;;
57303;SDS011;43150;50.986;18.208;2023-04-24T07:53:39;7.40;;;5.20;;
57303;SDS011;43150;50.986;18.208;2023-04-24T07:56:05;6.70;;;4.60;;
57303;SDS011;43150;50.986;18.208;2023-04-24T07:58:31;8.30;;;4.80;;
57303;SDS011;43150;50.986;18.208;2023-04-24T08:00:56;5.40;;;4.00;;
57303;SDS011;43150;50.986;18.208;2023-04-24T08:03:22;6.20;;;4.20;;
57303;SDS011;43150;50.986;18.208;2023-04-24T08:05:50;7.70;;;4.20;;
57303;SDS011;43150;50.986;18.208;2023-04-24T08:08:16;5.40;;;4.20;;
57303;SDS011;43150;50.986;18.208;2023-04-24T08:10:42;5.20;;;4.70;;
57303;SDS011;43150;50.986;18.208;2023-04-24T08:13:10;5.80;;;4.70;;
57303;SDS011;43150;50.986;18.208;2023-04-24T08:15:37;7.20;;;5.10;;
57303;SDS011;43150;50.986;18.208;2023-04-24T08:18:02;5.60;;;3.90;;
57303;SDS011;43150;50.986;18.208;2023-04-24T08:20:28;4.70;;;4.10;;
57303;SDS011;43150;50.986;18.208;2023-04-24T08:22:54;8.30;;;5.10;;
57303;SDS011;43150;50.986;18.208;2023-04-24T08:25:20;5.60;;;3.80;;
57303;SDS011;43150;50.986;18.208;2023-04-24T08:27:48;5.80;;;3.60;;
57303;SDS011;43150;50.986;18.208;2023-04-24T08:30:14;6.20;;;3.80;;
57303;SDS011;43150;50.986;18.208;2023-04-24T08:32:40;7.10;;;4.10;;
57303;SDS011;43150;50.986;18.208;2023-04-24T08:35:06;5.20;;;3.80;;
57303;SDS011;43150;50.986;18.208;2023-04-24T08:37:36;7.50;;;3.90;;
57303;SDS011;43150;50.986;18.208;2023-04-24T08:40:05;7.00;;;4.10;;
57303;SDS011;43150;50.986;18.208;2023-04-24T08:42:31;5.80;;;3.90;;
57303;SDS011;43150;50.986;18.208;2023-04-24T08:44:58;5.80;;;3.70;;
57303;SDS011;43150;50.986;18.208;2023-04-24T08:47:24;6.90;;;3.30;;
57303;SDS011;43150;50.986;18.208;2023-04-24T08:49:52;4.40;;;3.40;;
57303;SDS011;43150;50.986;18.208;2023-04-24T08:52:20;4.90;;;3.20;;
57303;SDS011;43150;50.986;18.208;2023-04-24T08:54:47;4.90;;;3.70;;
57303;SDS011;43150;50.986;18.208;2023-04-24T08:57:14;4.20;;;3.50;;
57303;SDS011;43150;50.986;18.208;2023-04-24T08:59:40;5.50;;;3.50;;
57303;SDS011;43150;50.986;18.208;2023-04-24T09:02:05;4.40;;;3.30;;
57303;SDS011;43150;50.986;18.208;2023-04-24T09:04:41;4.60;;;3.50;;
57303;SDS011;43150;50.986;18.208;2023-04-24T09:07:08;4.90;;;3.80;;
57303;SDS011;43150;50.986;18.208;2023-04-24T09:09:35;4.40;;;3.30;;
57303;SDS011;43150;50.986;18.208;2023-04-24T09:12:01;6.20;;;3.60;;
57303;SDS011;43150;50.986;18.208;2023-04-24T09:14:28;6.90;;;3.10;;
57303;SDS011;43150;50.986;18.208;2023-04-24T09:16:56;3.80;;;3.20;;
57303;SDS011;43150;50.986;18.208;2023-04-24T09:19:22;6.00;;;3.40;;
57303;SDS011;43150;50.986;18.208;2023-04-24T09:21:48;5.10;;;3.60;;
57303;SDS011;43150;50.986;18.208;2023-04-24T09:24:19;3.80;;;3.30;;
57303;SDS011;43150;50.986;18.208;2023-04-24T09:26:48;3.90;;;2.80;;
57303;SDS011;43150;50.986;18.208;2023-04-24T09:29:15;5.20;;;3.20;;
57303;SDS011;43150;50.986;18.208;2023-04-24T09:31:42;4.30;;;3.50;;
57303;SDS011;43150;50.986;18.208;2023-04-24T09:34:07;4.90;;;3.60;;
57303;SDS011;43150;50.986;18.208;2023-04-24T09:36:43;3.40;;;3.00;;
57303;SDS011;43150;50.986;18.208;2023-04-24T09:39:09;4.70;;;3.80;;
57303;SDS011;43150;50.986;18.208;2023-04-24T09:41:44;6.70;;;4.10;;
57303;SDS011;43150;50.986;18.208;2023-04-24T09:44:20;4.00;;;3.20;;
57303;SDS011;43150;50.986;18.208;2023-04-24T09:47:04;4.00;;;3.10;;
57303;SDS011;43150;50.986;18.208;2023-04-24T09:49:34;3.90;;;3.50;;
57303;SDS011;43150;50.986;18.208;2023-04-24T09:54:30;5.10;;;2.80;;
57303;SDS011;43150;50.986;18.208;2023-04-24T09:56:56;4.30;;;3.20;;
57303;SDS011;43150;50.986;18.208;2023-04-24T09:59:22;4.80;;;3.30;;
57303;SDS011;43150;50.986;18.208;2023-04-24T10:01:48;3.50;;;3.00;;
57303;SDS011;43150;50.986;18.208;2023-04-24T10:04:21;3.30;;;2.90;;
57303;SDS011;43150;50.986;18.208;2023-04-24T10:06:48;6.40;;;3.50;;
57303;SDS011;43150;50.986;18.208;2023-04-24T10:09:17;6.30;;;3.50;;
57303;SDS011;43150;50.986;18.208;2023-04-24T10:11:44;4.90;;;3.50;;
57303;SDS011;43150;50.986;18.208;2023-04-24T10:14:11;4.50;;;2.90;;
57303;SDS011;43150;50.986;18.208;2023-04-24T10:16:38;6.50;;;3.30;;
57303;SDS011;43150;50.986;18.208;2023-04-24T10:19:09;4.20;;;3.20;;
57303;SDS011;43150;50.986;18.208;2023-04-24T10:21:36;7.50;;;3.90;;
57303;SDS011;43150;50.986;18.208;2023-04-24T10:24:07;3.60;;;3.30;;
57303;SDS011;43150;50.986;18.208;2023-04-24T10:26:33;3.60;;;3.30;;
57303;SDS011;43150;50.986;18.208;2023-04-24T10:28:59;3.60;;;3.30;;
57303;SDS011;43150;50.986;18.208;2023-04-24T10:31:25;6.90;;;3.40;;
57303;SDS011;43150;50.986;18.208;2023-04-24T10:33:51;5.40;;;3.40;;
57303;SDS011;43150;50.986;18.208;2023-04-24T10:36:21;3.80;;;3.30;;
57303;SDS011;43150;50.986;18.208;2023-04-24T10:38:48;3.30;;;3.00;;
57303;SDS011;43150;50.986;18.208;2023-04-24T10:41:16;4.10;;;3.40;;
57303;SDS011;43150;50.986;18.208;2023-04-24T10:43:45;4.70;;;3.30;;
57303;SDS011;43150;50.986;18.208;2023-04-24T10:46:16;5.40;;;3.70;;
57303;SDS011;43150;50.986;18.208;2023-04-24T10:48:42;3.30;;;3.10;;
57303;SDS011;43150;50.986;18.208;2023-04-24T10:51:12;4.40;;;3.80;;
57303;SDS011;43150;50.986;18.208;2023-04-24T10:53:39;5.70;;;4.20;;
57303;SDS011;43150;50.986;18.208;2023-04-24T10:56:06;3.70;;;3.30;;
57303;SDS011;43150;50.986;18.208;2023-04-24T10:58:45;3.90;;;3.50;;
57303;SDS011;43150;50.986;18.208;2023-04-24T11:01:24;6.60;;;4.20;;
57303;SDS011;43150;50.986;18.208;2023-04-24T11:03:54;4.50;;;3.30;;
57303;SDS011;43150;50.986;18.208;2023-04-24T11:06:28;4.00;;;3.50;;
57303;SDS011;43150;50.986;18.208;2023-04-24T11:08:57;4.10;;;3.70;;
57303;SDS011;43150;50.986;18.208;2023-04-24T11:11:23;5.30;;;3.70;;
57303;SDS011;43150;50.986;18.208;2023-04-24T11:19:00;4.40;;;3.40;;
57303;SDS011;43150;50.986;18.208;2023-04-24T11:21:30;5.00;;;3.20;;
57303;SDS011;43150;50.986;18.208;2023-04-24T11:23:58;3.90;;;3.40;;
57303;SDS011;43150;50.986;18.208;2023-04-24T11:26:23;4.20;;;3.50;;
57303;SDS011;43150;50.986;18.208;2023-04-24T11:29:06;4.20;;;3.10;;
57303;SDS011;43150;50.986;18.208;2023-04-24T11:31:36;3.80;;;3.50;;
57303;SDS011;43150;50.986;18.208;2023-04-24T11:34:07;6.00;;;4.60;;
57303;SDS011;43150;50.986;18.208;2023-04-24T11:36:32;4.10;;;3.60;;
57303;SDS011;43150;50.986;18.208;2023-04-24T11:38:58;6.60;;;4.00;;
57303;SDS011;43150;50.986;18.208;2023-04-24T11:41:24;5.10;;;3.70;;
57303;SDS011;43150;50.986;18.208;2023-04-24T11:43:54;6.40;;;4.10;;
57303;SDS011;43150;50.986;18.208;2023-04-24T11:46:21;5.50;;;3.60;;
57303;SDS011;43150;50.986;18.208;2023-04-24T11:48:57;5.80;;;3.30;;
57303;SDS011;43150;50.986;18.208;2023-04-24T11:51:23;4.70;;;3.40;;
57303;SDS011;43150;50.986;18.208;2023-04-24T11:53:59;4.50;;;3.50;;
57303;SDS011;43150;50.986;18.208;2023-04-24T11:56:25;6.80;;;4.20;;
57303;SDS011;43150;50.986;18.208;2023-04-24T11:58:53;5.30;;;3.80;;
57303;SDS011;43150;50.986;18.208;2023-04-24T12:01:20;4.30;;;3.90;;
57303;SDS011;43150;50.986;18.208;2023-04-24T12:03:47;3.90;;;3.40;;
57303;SDS011;43150;50.986;18.208;2023-04-24T12:06:16;4.50;;;3.50;;
57303;SDS011;43150;50.986;18.208;2023-04-24T12:08:42;9.20;;;5.60;;
57303;SDS011;43150;50.986;18.208;2023-04-24T12:11:10;10.30;;;4.60;;
57303;SDS011;43150;50.986;18.208;2023-04-24T12:13:37;6.10;;;4.70;;
57303;SDS011;43150;50.986;18.208;2023-04-24T12:16:03;4.90;;;4.10;;
57303;SDS011;43150;50.986;18.208;2023-04-24T12:18:29;4.60;;;4.20;;
57303;SDS011;43150;50.986;18.208;2023-04-24T12:20:55;5.20;;;3.60;;
57303;SDS011;43150;50.986;18.208;2023-04-24T12:23:42;5.20;;;3.30;;
57303;SDS011;43150;50.986;18.208;2023-04-24T12:26:08;4.90;;;3.50;;
57303;SDS011;43150;50.986;18.208;2023-04-24T12:28:37;5.20;;;4.00;;
57303;SDS011;43150;50.986;18.208;2023-04-24T12:31:02;4.00;;;3.60;;
57303;SDS011;43150;50.986;18.208;2023-04-24T12:33:32;7.50;;;4.40;;
57303;SDS011;43150;50.986;18.208;2023-04-24T12:35:57;4.30;;;3.60;;
57303;SDS011;43150;50.986;18.208;2023-04-24T12:38:23;6.20;;;4.00;;
57303;SDS011;43150;50.986;18.208;2023-04-24T12:41:01;4.40;;;3.40;;
57303;SDS011;43150;50.986;18.208;2023-04-24T12:43:27;6.00;;;3.20;;
57303;SDS011;43150;50.986;18.208;2023-04-24T12:45:52;5.20;;;3.60;;
57303;SDS011;43150;50.986;18.208;2023-04-24T12:48:18;4.50;;;3.70;;
57303;SDS011;43150;50.986;18.208;2023-04-24T12:50:45;5.60;;;3.30;;
57303;SDS011;43150;50.986;18.208;2023-04-24T12:53:11;4.20;;;3.20;;
57303;SDS011;43150;50.986;18.208;2023-04-24T12:55:37;6.80;;;4.00;;
57303;SDS011;43150;50.986;18.208;2023-04-24T12:58:02;3.40;;;3.00;;
57303;SDS011;43150;50.986;18.208;2023-04-24T13:00:28;4.40;;;3.10;;
57303;SDS011;43150;50.986;18.208;2023-04-24T13:02:57;5.90;;;3.90;;
57303;SDS011;43150;50.986;18.208;2023-04-24T13:05:22;3.80;;;3.50;;
57303;SDS011;43150;50.986;18.208;2023-04-24T13:07:48;4.20;;;3.80;;
57303;SDS011;43150;50.986;18.208;2023-04-24T13:10:13;4.90;;;3.60;;
57303;SDS011;43150;50.986;18.208;2023-04-24T13:12:39;3.60;;;3.30;;
57303;SDS011;43150;50.986;18.208;2023-04-24T13:15:06;3.90;;;3.30;;
57303;SDS011;43150;50.986;18.208;2023-04-24T13:17:31;5.50;;;4.90;;
57303;SDS011;43150;50.986;18.208;2023-04-24T13:19:57;4.20;;;3.90;;
57303;SDS011;43150;50.986;18.208;2023-04-24T13:22:22;4.50;;;4.00;;
57303;SDS011;43150;50.986;18.208;2023-04-24T13:24:49;5.00;;;3.80;;
57303;SDS011;43150;50.986;18.208;2023-04-24T13:27:15;5.80;;;4.30;;
57303;SDS011;43150;50.986;18.208;2023-04-24T13:29:40;4.40;;;3.90;;
57303;SDS011;43150;50.986;18.208;2023-04-24T13:32:06;5.20;;;4.70;;
57303;SDS011;43150;50.986;18.208;2023-04-24T13:34:32;4.90;;;4.40;;
57303;SDS011;43150;50.986;18.208;2023-04-24T13:36:57;5.50;;;4.70;;
57303;SDS011;43150;50.986;18.208;2023-04-24T13:39:23;5.00;;;4.30;;
57303;SDS011;43150;50.986;18.208;2023-04-24T13:41:49;5.50;;;4.70;;
57303;SDS011;43150;50.986;18.208;2023-04-24T13:44:16;4.20;;;3.90;;
57303;SDS011;43150;50.986;18.208;2023-04-24T13:46:42;11.80;;;5.20;;
57303;SDS011;43150;50.986;18.208;2023-04-24T13:49:09;8.00;;;6.00;;
57303;SDS011;43150;50.986;18.208;2023-04-24T13:51:35;7.90;;;5.60;;
57303;SDS011;43150;50.986;18.208;2023-04-24T13:54:01;21.50;;;7.10;;
57303;SDS011;43150;50.986;18.208;2023-04-24T13:56:26;4.70;;;4.20;;
57303;SDS011;43150;50.986;18.208;2023-04-24T13:58:52;5.60;;;4.90;;
57303;SDS011;43150;50.986;18.208;2023-04-24T14:01:23;10.00;;;5.80;;
57303;SDS011;43150;50.986;18.208;2023-04-24T14:03:52;6.00;;;5.30;;
57303;SDS011;43150;50.986;18.208;2023-04-24T14:06:19;6.40;;;5.80;;
57303;SDS011;43150;50.986;18.208;2023-04-24T14:08:44;5.60;;;5.00;;
57303;SDS011;43150;50.986;18.208;2023-04-24T14:11:10;5.00;;;4.50;;
57303;SDS011;43150;50.986;18.208;2023-04-24T14:13:38;10.20;;;5.40;;
57303;SDS011;43150;50.986;18.208;2023-04-24T14:16:05;6.40;;;5.70;;
57303;SDS011;43150;50.986;18.208;2023-04-24T14:18:31;7.30;;;6.40;;
57303;SDS011;43150;50.986;18.208;2023-04-24T14:20:57;6.20;;;5.50;;
57303;SDS011;43150;50.986;18.208;2023-04-24T14:23:22;6.60;;;6.00;;
57303;SDS011;43150;50.986;18.208;2023-04-24T14:25:48;6.20;;;5.40;;
57303;SDS011;43150;50.986;18.208;2023-04-24T14:28:17;6.40;;;5.70;;
57303;SDS011;43150;50.986;18.208;2023-04-24T14:30:45;7.20;;;5.90;;
57303;SDS011;43150;50.986;18.208;2023-04-24T14:33:11;7.20;;;6.30;;
57303;SDS011;43150;50.986;18.208;2023-04-24T14:35:38;6.00;;;5.40;;